createdAt,value
2023-04-29T10:37:46.954Z,3.40
2023-04-29T10:40:21.277Z,2.70
2023-04-29T10:42:53.310Z,2.90
2023-04-29T10:45:32.755Z,2.60
2023-04-29T10:48:10.882Z,3.20
2023-04-29T10:50:47.352Z,3.40
2023-04-29T10:53:19.632Z,3.40
2023-04-29T10:55:54.696Z,4.40
2023-04-29T10:58:47.210Z,3.20
2023-04-29T11:01:18.118Z,3.60
2023-04-29T11:04:00.238Z,3.60
2023-04-29T11:06:42.489Z,4.40
2023-04-29T11:09:25.285Z,4.90
2023-04-29T11:12:08.251Z,4.30
2023-04-29T11:14:51.253Z,3.90
2023-04-29T11:17:21.273Z,3.60
2023-04-29T11:19:52.743Z,7.20
2023-04-29T11:22:31.026Z,4.30
2023-04-29T11:25:05.451Z,2.70
2023-04-29T11:27:38.073Z,2.90
2023-04-29T11:30:09.484Z,3.50
2023-04-29T11:32:42.994Z,5.60
2023-04-29T11:35:16.001Z,3.40
2023-04-29T11:37:47.675Z,3.80
2023-04-29T11:40:17.609Z,2.40
2023-04-29T11:42:50.818Z,2.60
2023-04-29T11:45:20.764Z,3.30
2023-04-29T11:47:50.779Z,3.20
2023-04-29T11:50:21.118Z,3.20
2023-04-29T11:52:50.808Z,3.10
2023-04-29T11:55:20.302Z,5.00
2023-04-29T11:57:52.505Z,4.90
2023-04-29T12:00:22.189Z,3.90
2023-04-29T12:02:51.992Z,3.70
2023-04-29T12:05:21.983Z,3.90
2023-04-29T12:07:51.718Z,3.90
2023-04-29T12:10:21.739Z,4.60
2023-04-29T12:12:51.652Z,3.90
2023-04-29T12:15:21.706Z,3.30
2023-04-29T12:17:51.706Z,3.00
2023-04-29T12:20:21.414Z,3.20
2023-04-29T12:22:50.806Z,3.80
2023-04-29T12:25:22.458Z,4.30
2023-04-29T12:27:51.765Z,3.50
2023-04-29T12:30:21.607Z,3.90
2023-04-29T12:32:52.720Z,4.00
2023-04-29T12:35:22.433Z,4.10
2023-04-29T12:37:51.958Z,3.90
2023-04-29T12:40:21.470Z,3.70
2023-04-29T12:42:50.944Z,4.10
2023-04-29T12:45:32.344Z,4.20
2023-04-29T12:48:03.325Z,4.10
2023-04-29T12:50:39.756Z,5.30
2023-04-29T12:53:09.643Z,4.50
2023-04-29T12:55:39.385Z,4.80
2023-04-29T12:58:09.686Z,5.10
2023-04-29T13:00:39.281Z,5.30
2023-04-29T13:03:08.852Z,5.00
2023-04-29T13:05:38.306Z,3.80
2023-04-29T13:08:08.369Z,4.30
2023-04-29T13:10:38.968Z,5.40
2023-04-29T13:13:09.777Z,6.80
2023-04-29T13:15:42.668Z,5.90
2023-04-29T13:18:12.177Z,5.70
2023-04-29T13:20:42.615Z,6.70
2023-04-29T13:23:14.872Z,6.70
2023-04-29T13:25:44.192Z,5.60
2023-04-29T13:28:13.481Z,6.40
2023-04-29T13:30:42.979Z,6.80
2023-04-29T13:33:13.584Z,6.90
2023-04-29T13:35:43.221Z,7.30
2023-04-29T13:38:12.735Z,6.30
2023-04-29T13:40:46.552Z,6.10
2023-04-29T13:43:23.292Z,7.00
2023-04-29T13:45:55.705Z,6.90
2023-04-29T13:48:55.315Z,7.00
2023-04-29T13:51:55.832Z,6.40
2023-04-29T13:59:36.076Z,7.30
2023-04-29T14:04:35.231Z,7.80
2023-04-29T14:07:04.905Z,7.90
2023-04-29T14:09:34.653Z,8.10
2023-04-29T14:12:04.156Z,7.20
2023-04-29T14:14:33.792Z,7.70
2023-04-29T14:17:04.139Z,7.80
2023-04-29T14:19:33.614Z,7.90
2023-04-29T14:22:03.788Z,6.30
2023-04-29T14:24:33.238Z,6.70
2023-04-29T14:27:02.754Z,7.80
2023-04-29T14:29:33.201Z,8.90
2023-04-29T14:32:02.870Z,7.50
2023-04-29T14:34:32.273Z,8.50
2023-04-29T14:37:01.896Z,7.90
2023-04-29T14:39:31.282Z,20.80
2023-04-29T14:42:02.992Z,15.70
2023-04-29T14:44:35.209Z,8.20
2023-04-29T14:47:05.236Z,7.30
2023-04-29T14:49:34.431Z,8.10
2023-04-29T14:52:03.958Z,8.20
2023-04-29T14:54:33.333Z,7.20
2023-04-29T14:57:02.745Z,6.70
2023-04-29T14:59:32.443Z,7.20
2023-04-29T15:02:02.092Z,6.80
2023-04-29T15:04:33.846Z,6.30
2023-04-29T15:07:04.036Z,5.50
2023-04-29T15:09:33.542Z,6.40
2023-04-29T15:12:03.046Z,6.70
2023-04-29T15:14:32.448Z,6.00
2023-04-29T15:17:01.989Z,5.70
2023-04-29T15:19:31.362Z,8.90
2023-04-29T15:22:00.878Z,6.50
2023-04-29T15:24:30.103Z,6.60
2023-04-29T15:26:59.286Z,5.90
2023-04-29T15:29:29.588Z,6.20
2023-04-29T15:31:59.113Z,7.00
2023-04-29T15:34:28.898Z,10.60
2023-04-29T15:37:00.149Z,8.70
2023-04-29T15:39:30.486Z,5.40
2023-04-29T15:42:00.425Z,5.20
2023-04-29T15:44:31.328Z,5.00
2023-04-29T15:47:00.830Z,9.80
2023-04-29T15:49:31.152Z,5.00
2023-04-29T15:52:01.176Z,5.00
2023-04-29T15:54:30.989Z,6.30
2023-04-29T15:57:01.254Z,6.90
2023-04-29T15:59:31.951Z,6.70
2023-04-29T16:02:01.247Z,7.20
2023-04-29T16:04:31.781Z,7.60
2023-04-29T16:07:01.793Z,6.90
2023-04-29T16:09:35.710Z,6.30
2023-04-29T16:12:05.799Z,6.20
2023-04-29T16:14:35.440Z,5.70
2023-04-29T16:17:05.815Z,9.50
2023-04-29T16:19:51.128Z,7.50
2023-04-29T16:22:21.275Z,12.40
2023-04-29T16:24:51.069Z,16.00
2023-04-29T16:27:20.573Z,93.90
2023-04-29T16:29:51.946Z,20.30
2023-04-29T16:32:23.083Z,10.90
2023-04-29T16:34:52.478Z,7.50
2023-04-29T16:37:22.902Z,8.50
2023-04-29T16:39:52.318Z,7.90
2023-04-29T16:42:21.917Z,10.70
2023-04-29T16:44:52.232Z,13.60
2023-04-29T16:47:21.973Z,51.30
2023-04-29T16:49:52.208Z,138.00
2023-04-29T16:52:22.588Z,58.80
2023-04-29T16:54:52.333Z,34.50
2023-04-29T16:57:21.810Z,39.50
2023-04-29T17:00:10.519Z,26.40
2023-04-29T17:02:47.457Z,21.90
2023-04-29T17:05:21.758Z,24.00
2023-04-29T17:07:51.266Z,46.50
2023-04-29T17:10:21.882Z,125.90
2023-04-29T17:12:53.661Z,23.80
2023-04-29T17:15:25.288Z,16.80
2023-04-29T17:17:55.976Z,17.80
2023-04-29T17:20:26.378Z,17.90
2023-04-29T17:22:55.587Z,20.20
2023-04-29T17:25:25.184Z,25.80
2023-04-29T17:27:54.887Z,35.00
2023-04-29T17:30:25.137Z,28.90
2023-04-29T17:32:55.363Z,32.90
2023-04-29T17:35:24.833Z,37.20
2023-04-29T17:37:54.136Z,40.60
2023-04-29T17:40:23.853Z,35.90
2023-04-29T17:42:53.155Z,37.00
2023-04-29T17:45:22.768Z,30.00
2023-04-29T17:47:52.189Z,25.30
2023-04-29T17:50:21.879Z,23.30
2023-04-29T17:52:51.477Z,20.60
2023-04-29T17:55:21.200Z,20.90
2023-04-29T17:57:50.711Z,25.50
2023-04-29T18:00:20.203Z,36.10
2023-04-29T18:02:49.713Z,38.30
2023-04-29T18:05:20.744Z,43.00
2023-04-29T18:07:50.158Z,45.40
2023-04-29T18:10:19.456Z,157.00
2023-04-29T18:12:48.853Z,137.80
2023-04-29T18:15:18.461Z,51.20
2023-04-29T18:17:47.790Z,51.20
2023-04-29T18:20:17.374Z,51.70
2023-04-29T18:22:47.099Z,53.80
2023-04-29T18:25:17.616Z,48.20
2023-04-29T18:27:46.908Z,49.20
2023-04-29T18:30:16.622Z,42.80
2023-04-29T18:32:45.931Z,45.80
2023-04-29T18:35:15.430Z,55.10
2023-04-29T18:37:45.134Z,52.10
2023-04-29T18:40:14.528Z,48.00
2023-04-29T18:42:43.844Z,48.40
2023-04-29T18:45:13.143Z,49.10
2023-04-29T18:47:42.670Z,50.90
2023-04-29T18:50:12.455Z,48.70
2023-04-29T18:52:42.383Z,43.90
2023-04-29T18:55:13.661Z,42.40
2023-04-29T18:57:43.840Z,44.30
2023-04-29T19:00:15.452Z,46.90
2023-04-29T19:02:44.913Z,50.20
2023-04-29T19:05:14.234Z,44.60
2023-04-29T19:07:43.505Z,43.60
2023-04-29T19:10:13.923Z,48.50
2023-04-29T19:12:44.866Z,47.70
2023-04-29T19:15:14.273Z,47.80
2023-04-29T19:17:44.377Z,46.10
2023-04-29T19:20:13.697Z,48.40
2023-04-29T19:22:43.309Z,51.30
2023-04-29T19:25:13.019Z,48.20
2023-04-29T19:27:48.983Z,52.10
2023-04-29T19:30:18.578Z,53.20
2023-04-29T19:32:48.207Z,53.30
2023-04-29T19:35:17.698Z,51.50
2023-04-29T19:37:47.501Z,52.50
2023-04-29T19:40:17.320Z,50.70
2023-04-29T19:42:46.921Z,51.90
2023-04-29T19:45:16.348Z,51.80
2023-04-29T19:47:45.877Z,53.00
2023-04-29T19:50:15.742Z,50.30
2023-04-29T19:52:45.269Z,50.30
2023-04-29T19:55:15.180Z,50.50
2023-04-29T19:57:44.677Z,49.30
2023-04-29T20:00:14.827Z,51.70
2023-04-29T20:02:44.863Z,54.50
2023-04-29T20:05:16.463Z,53.50
2023-04-29T20:07:45.753Z,56.70
2023-04-29T20:10:15.896Z,53.50
2023-04-29T20:12:45.194Z,52.70
2023-04-29T20:15:15.753Z,54.50
2023-04-29T20:17:45.542Z,58.10
2023-04-29T20:20:14.834Z,76.30
2023-04-29T20:22:44.236Z,96.10
2023-04-29T20:25:13.756Z,93.30
2023-04-29T20:27:43.346Z,88.10
2023-04-29T20:30:12.883Z,84.60
2023-04-29T20:32:43.124Z,76.30
2023-04-29T20:35:12.329Z,83.10
2023-04-29T20:37:41.890Z,82.30
2023-04-29T20:40:12.314Z,72.60
2023-04-29T20:42:42.039Z,88.50
2023-04-29T20:45:11.842Z,71.90
2023-04-29T20:47:41.792Z,69.30
2023-04-29T20:50:12.159Z,68.60
2023-04-29T20:52:41.759Z,63.80
2023-04-29T20:55:12.312Z,65.70
2023-04-29T20:57:41.619Z,61.00
2023-04-29T21:00:12.110Z,58.90
2023-04-29T21:02:41.353Z,79.20
2023-04-29T21:05:11.066Z,77.90
2023-04-29T21:07:40.970Z,81.10
2023-04-29T21:10:11.302Z,98.40
2023-04-29T21:12:41.000Z,93.00
2023-04-29T21:15:11.515Z,108.00
2023-04-29T21:17:40.901Z,111.20
2023-04-29T21:20:11.472Z,123.20
2023-04-29T21:22:41.074Z,112.10
2023-04-29T21:25:10.371Z,118.30
2023-04-29T21:27:39.692Z,100.60
2023-04-29T21:30:09.790Z,92.50
2023-04-29T21:32:39.721Z,92.80
2023-04-29T21:35:10.235Z,91.50
2023-04-29T21:37:39.548Z,93.30
2023-04-29T21:40:10.513Z,98.40
2023-04-29T21:42:40.594Z,96.90
2023-04-29T21:45:13.880Z,96.40
2023-04-29T21:47:44.030Z,102.70
2023-04-29T21:50:15.183Z,146.50
2023-04-29T21:52:44.661Z,128.60
2023-04-29T21:55:14.061Z,121.60
2023-04-29T21:57:45.221Z,116.40
2023-04-29T22:00:33.409Z,106.50
2023-04-29T22:03:04.110Z,88.80
2023-04-29T22:05:33.595Z,73.20
2023-04-29T22:08:07.389Z,66.70
2023-04-29T22:10:40.283Z,72.30
2023-04-29T22:13:10.450Z,61.60
2023-04-29T22:15:40.368Z,60.40
2023-04-29T22:18:09.921Z,55.80
2023-04-29T22:20:39.233Z,57.50
2023-04-29T22:23:08.603Z,56.50
2023-04-29T22:25:38.239Z,57.50
2023-04-29T22:28:07.644Z,56.80
2023-04-29T22:30:37.007Z,56.20
2023-04-29T22:33:06.518Z,54.90
2023-04-29T22:35:35.950Z,54.10
2023-04-29T22:38:05.763Z,51.70
2023-04-29T22:40:37.081Z,52.50
2023-04-29T22:43:07.334Z,50.20
2023-04-29T22:45:36.638Z,50.40
2023-04-29T22:48:06.827Z,52.40
2023-04-29T22:50:36.368Z,49.10
2023-04-29T22:53:05.662Z,48.30
2023-04-29T22:55:35.094Z,48.10
2023-04-29T22:58:04.779Z,47.20
2023-04-29T23:00:34.186Z,45.50
2023-04-29T23:03:03.819Z,44.40
2023-04-29T23:05:33.085Z,41.90
2023-04-29T23:08:03.524Z,40.60
2023-04-29T23:10:34.249Z,41.60
2023-04-29T23:13:03.763Z,38.30
2023-04-29T23:15:33.194Z,41.10
2023-04-29T23:18:02.614Z,36.70
2023-04-29T23:20:32.682Z,35.40
2023-04-29T23:23:01.896Z,36.00
2023-04-29T23:25:31.489Z,33.50
2023-04-29T23:28:01.003Z,31.20
2023-04-29T23:30:31.727Z,36.30
2023-04-29T23:33:01.192Z,33.80
2023-04-29T23:35:31.886Z,33.90
2023-04-29T23:38:01.266Z,34.70
2023-04-29T23:40:31.802Z,33.30
2023-04-29T23:43:01.199Z,33.90
2023-04-29T23:45:30.601Z,34.30
2023-04-29T23:47:59.961Z,31.30
2023-04-29T23:50:29.820Z,28.80
2023-04-29T23:52:59.731Z,28.00
2023-04-29T23:55:30.572Z,27.60
2023-04-29T23:58:00.878Z,27.10
